Time;durP1;ratioP1;P1;durP2;ratioP2;P2;SDS_P1;SDS_P2;PMS_P1;PMS_P2;Temp;Humidity;BMP_temperature;BMP_pressure;BME280_temperature;BME280_humidity;BME280_pressure;Samples;Min_cycle;Max_cycle;Signal;HPM_P1;HPM_P2
2023/03/16 00:00:42;;;;;;;10.95;5.15;;;3.20;99.90;;;;;;5051061;28;20071;-61
2023/03/16 00:03:09;;;;;;;10.50;5.57;;;3.20;99.90;;;;;;5032895;28;20443;-61
2023/03/16 00:05:35;;;;;;;13.13;6.15;;;3.20;99.90;;;;;;5035885;28;20028;-61
2023/03/16 00:08:01;;;;;;;9.60;5.32;;;3.20;99.90;;;;;;5050357;28;20475;-62
2023/03/16 00:10:27;;;;;;;10.45;5.40;;;3.20;99.90;;;;;;5048811;28;20037;-62
2023/03/16 00:12:53;;;;;;;14.35;5.68;;;3.30;99.90;;;;;;5038325;28;20483;-61
2023/03/16 00:15:19;;;;;;;10.63;5.28;;;3.30;99.90;;;;;;5050957;28;20029;-61
2023/03/16 00:17:47;;;;;;;13.90;5.70;;;3.40;99.90;;;;;;5048160;28;20037;-61
2023/03/16 00:20:14;;;;;;;12.77;5.90;;;3.40;99.90;;;;;;5044538;28;20047;-61
2023/03/16 00:22:40;;;;;;;14.77;5.80;;;3.50;99.90;;;;;;5050705;28;20476;-61
2023/03/16 00:25:07;;;;;;;14.60;5.78;;;3.50;99.90;;;;;;5051086;28;20491;-61
2023/03/16 00:27:33;;;;;;;15.10;5.57;;;3.50;99.90;;;;;;5044389;28;20112;-61
2023/03/16 00:29:58;;;;;;;13.52;5.68;;;3.60;99.90;;;;;;5040397;28;20439;-62
2023/03/16 00:32:30;;;;;;;12.57;5.93;;;3.60;99.90;;;;;;5050998;28;20033;-62
2023/03/16 00:34:56;;;;;;;11.75;5.35;;;3.60;99.90;;;;;;5044470;28;20048;-62
2023/03/16 00:37:23;;;;;;;10.05;5.35;;;3.70;99.90;;;;;;5041602;28;20041;-61
2023/03/16 00:39:50;;;;;;;12.15;5.70;;;3.70;99.90;;;;;;5051046;28;20033;-61
2023/03/16 00:42:17;;;;;;;13.85;5.97;;;3.70;99.90;;;;;;5051138;28;20095;-61
2023/03/16 00:44:42;;;;;;;13.38;5.18;;;3.80;99.90;;;;;;5041287;28;20037;-62
2023/03/16 00:47:13;;;;;;;11.02;4.80;;;3.80;99.90;;;;;;5049622;28;20048;-61
2023/03/16 00:49:41;;;;;;;10.60;5.85;;;3.80;99.90;;;;;;5050660;28;20048;-61
2023/03/16 00:52:08;;;;;;;10.93;5.38;;;3.80;99.90;;;;;;5042101;28;20443;-61
2023/03/16 00:54:34;;;;;;;10.60;5.32;;;3.80;99.90;;;;;;5050225;28;20071;-61
2023/03/16 00:57:01;;;;;;;11.63;5.63;;;3.80;99.90;;;;;;5049973;28;20041;-61
2023/03/16 00:59:27;;;;;;;14.15;5.70;;;3.70;99.90;;;;;;5048509;28;20048;-61
2023/03/16 01:01:54;;;;;;;13.82;5.78;;;3.70;99.90;;;;;;5043159;28;20568;-62
2023/03/16 01:04:21;;;;;;;14.73;6.03;;;3.70;99.90;;;;;;5041108;28;20070;-61
2023/03/16 01:06:46;;;;;;;13.98;5.72;;;3.70;99.90;;;;;;5050327;28;20040;-61
2023/03/16 01:09:13;;;;;;;12.25;5.72;;;3.70;99.90;;;;;;5037284;28;20038;-61
2023/03/16 01:11:41;;;;;;;13.10;6.10;;;3.70;99.90;;;;;;5048993;28;20052;-61
2023/03/16 01:14:08;;;;;;;10.18;5.63;;;3.70;99.90;;;;;;5054402;28;20392;-61
2023/03/16 01:16:34;;;;;;;11.90;5.93;;;3.70;99.90;;;;;;5048610;28;20135;-62
2023/03/16 01:19:00;;;;;;;11.13;5.70;;;3.70;99.90;;;;;;5037919;28;20088;-61
2023/03/16 01:21:26;;;;;;;13.20;6.07;;;3.70;99.90;;;;;;5054194;28;20396;-61
2023/03/16 01:23:52;;;;;;;12.27;6.18;;;3.70;99.90;;;;;;5054550;28;20033;-61
2023/03/16 01:26:19;;;;;;;12.52;6.20;;;3.70;99.90;;;;;;5042127;28;20375;-62
2023/03/16 01:28:45;;;;;;;13.00;7.00;;;3.60;99.90;;;;;;5053304;28;20500;-61
2023/03/16 01:31:16;;;;;;;12.60;5.40;;;3.60;99.90;;;;;;5053893;28;20503;-62
2023/03/16 01:33:42;;;;;;;12.75;5.63;;;3.60;99.90;;;;;;5054402;28;20080;-61
2023/03/16 01:36:14;;;;;;;10.70;5.53;;;3.60;99.90;;;;;;5042133;28;20040;-61
2023/03/16 01:38:40;;;;;;;12.05;5.95;;;3.60;99.90;;;;;;5053372;28;20045;-61
2023/03/16 01:41:07;;;;;;;9.82;5.05;;;3.50;99.90;;;;;;5051785;28;20065;-61
2023/03/16 01:43:33;;;;;;;14.10;5.63;;;3.60;99.90;;;;;;5036748;28;20041;-62
2023/03/16 01:46:05;;;;;;;12.13;5.75;;;3.50;99.90;;;;;;5050470;28;20041;-61
2023/03/16 01:48:49;;;;;;;9.00;5.38;;;3.50;99.90;;;;;;5053847;28;20045;-61
2023/03/16 01:51:29;;;;;;;12.18;5.32;;;3.50;99.90;;;;;;5051754;28;20037;-61
2023/03/16 01:54:07;;;;;;;10.25;5.10;;;3.50;99.90;;;;;;5053763;28;20116;-61
2023/03/16 01:56:37;;;;;;;8.20;4.75;;;3.50;99.90;;;;;;5053805;28;20052;-61
2023/03/16 01:59:08;;;;;;;11.90;5.95;;;3.50;99.90;;;;;;5033639;28;20067;-61
2023/03/16 02:01:34;;;;;;;9.20;5.60;;;3.50;99.90;;;;;;5052293;28;20040;-61
2023/03/16 02:04:34;;;;;;;11.00;5.30;;;3.50;99.90;;;;;;5053482;28;20388;-61
2023/03/16 02:06:59;;;;;;;14.75;5.95;;;3.50;99.90;;;;;;5036838;28;20060;-62
2023/03/16 02:09:26;;;;;;;11.25;5.18;;;3.50;99.90;;;;;;5039211;28;20418;-61
2023/03/16 02:11:53;;;;;;;10.48;5.18;;;3.60;99.90;;;;;;5053221;28;20048;-61
2023/03/16 02:14:18;;;;;;;13.65;5.82;;;3.60;99.90;;;;;;5053438;28;20041;-61
2023/03/16 02:16:44;;;;;;;11.00;5.38;;;3.60;99.90;;;;;;5048953;28;20167;-61
2023/03/16 02:19:36;;;;;;;11.18;6.13;;;3.60;99.90;;;;;;5048252;28;20044;-62
2023/03/16 02:22:06;;;;;;;9.43;5.38;;;3.60;99.90;;;;;;5049644;28;20506;-61
2023/03/16 02:24:32;;;;;;;8.95;5.25;;;3.70;99.90;;;;;;5052904;28;20073;-61
2023/03/16 02:27:03;;;;;;;8.60;5.22;;;3.70;99.90;;;;;;5053431;28;20073;-61
2023/03/16 02:29:53;;;;;;;10.73;5.90;;;3.70;99.90;;;;;;5047320;28;20041;-61
2023/03/16 02:32:21;;;;;;;9.65;5.45;;;3.70;99.90;;;;;;5051007;28;20119;-61
2023/03/16 02:34:47;;;;;;;11.48;5.75;;;3.80;99.90;;;;;;5052913;28;20119;-61
2023/03/16 02:37:13;;;;;;;12.15;5.75;;;3.80;99.90;;;;;;5045737;28;20132;-62
2023/03/16 02:39:38;;;;;;;9.38;5.28;;;3.80;99.90;;;;;;5052242;28;20043;-61
2023/03/16 02:42:04;;;;;;;13.48;5.40;;;3.90;99.90;;;;;;5052473;28;20037;-62
2023/03/16 02:44:36;;;;;;;9.63;5.05;;;3.90;99.90;;;;;;5048747;28;20044;-61
2023/03/16 02:47:04;;;;;;;;;;;3.90;99.90;;;;;;5034689;28;20100;-61
2023/03/16 02:49:36;;;;;;;8.40;5.00;;;4.00;99.90;;;;;;5052090;28;20409;-60
2023/03/16 02:52:04;;;;;;;8.65;5.13;;;4.00;99.90;;;;;;5052662;28;20037;-61
2023/03/16 02:54:29;;;;;;;12.10;5.43;;;4.00;99.90;;;;;;5031897;28;20090;-61
2023/03/16 02:56:55;;;;;;;9.40;5.35;;;4.00;99.90;;;;;;5051578;28;20045;-61
2023/03/16 02:59:20;;;;;;;10.95;5.25;;;4.10;99.90;;;;;;5052226;28;20048;-61
2023/03/16 03:01:46;;;;;;;11.35;5.20;;;4.10;99.90;;;;;;5048507;28;20029;-61
2023/03/16 03:04:12;;;;;;;10.70;5.20;;;4.10;99.90;;;;;;5039607;28;20041;-61
2023/03/16 03:06:38;;;;;;;10.48;5.88;;;4.10;99.90;;;;;;5052307;28;20036;-61
2023/03/16 03:09:04;;;;;;;11.30;5.43;;;4.10;99.90;;;;;;5051963;28;20072;-61
2023/03/16 03:11:30;;;;;;;9.25;5.63;;;4.10;99.90;;;;;;5046313;28;20033;-61
2023/03/16 03:13:59;;;;;;;9.90;5.45;;;4.20;99.90;;;;;;5048555;28;20036;-61
2023/03/16 03:16:25;;;;;;;10.32;5.25;;;4.20;99.90;;;;;;5052569;28;20037;-62
2023/03/16 03:18:51;;;;;;;14.13;5.80;;;4.20;99.90;;;;;;5044668;28;20445;-61
2023/03/16 03:21:18;;;;;;;8.68;5.32;;;4.20;99.90;;;;;;5051354;28;20037;-61
2023/03/16 03:23:45;;;;;;;10.98;5.45;;;4.20;99.90;;;;;;5051966;28;20055;-62
2023/03/16 03:26:13;;;;;;;11.38;5.82;;;4.20;99.90;;;;;;5047179;28;20037;-61
2023/03/16 03:28:39;;;;;;;9.65;5.60;;;4.20;99.90;;;;;;5050140;28;20037;-61
2023/03/16 03:31:06;;;;;;;11.35;5.40;;;4.20;99.90;;;;;;5041866;28;20037;-61
2023/03/16 03:33:32;;;;;;;10.68;5.45;;;4.20;99.90;;;;;;5050159;28;20610;-61
2023/03/16 03:35:58;;;;;;;11.18;5.45;;;4.20;99.90;;;;;;5042111;28;20041;-62
2023/03/16 03:38:25;;;;;;;9.57;5.43;;;4.20;99.90;;;;;;5050810;28;20069;-62
2023/03/16 03:40:52;;;;;;;11.95;5.35;;;4.20;99.90;;;;;;5051975;28;20084;-61
2023/03/16 03:43:17;;;;;;;9.90;5.55;;;4.20;99.90;;;;;;5047651;28;20037;-61
2023/03/16 03:45:43;;;;;;;13.63;5.47;;;4.20;99.90;;;;;;5049102;28;20388;-61
2023/03/16 03:48:09;;;;;;;9.45;5.20;;;4.20;99.90;;;;;;5051132;28;20095;-61
2023/03/16 03:50:37;;;;;;;8.30;5.18;;;4.20;99.90;;;;;;5051782;28;20033;-61
2023/03/16 03:53:03;;;;;;;10.35;5.72;;;4.30;99.90;;;;;;5046644;28;20037;-62
2023/03/16 03:55:28;;;;;;;9.98;5.18;;;4.30;99.90;;;;;;5048350;28;20039;-62
2023/03/16 03:57:54;;;;;;;10.10;5.55;;;4.40;99.90;;;;;;5051055;28;20041;-61
2023/03/16 04:00:20;;;;;;;11.63;5.43;;;4.40;99.90;;;;;;5048225;28;20033;-61
2023/03/16 04:02:46;;;;;;;8.80;4.93;;;4.40;99.90;;;;;;5046936;28;20039;-61
2023/03/16 04:05:12;;;;;;;9.13;5.20;;;4.40;99.90;;;;;;5051001;28;20033;-61
2023/03/16 04:07:37;;;;;;;10.10;4.85;;;4.50;99.90;;;;;;5046925;28;20480;-61
2023/03/16 04:10:04;;;;;;;9.20;5.03;;;4.50;99.90;;;;;;5050319;28;20031;-61
2023/03/16 04:12:30;;;;;;;8.95;5.10;;;4.50;99.90;;;;;;5040887;28;20033;-61
2023/03/16 04:14:55;;;;;;;10.05;5.50;;;4.50;99.90;;;;;;5051442;28;20087;-61
2023/03/16 04:17:22;;;;;;;13.57;5.53;;;4.50;99.90;;;;;;5038235;28;20701;-61
2023/03/16 04:19:48;;;;;;;11.90;5.30;;;4.50;99.90;;;;;;5032646;28;20037;-61
2023/03/16 04:22:14;;;;;;;12.52;5.55;;;4.50;99.90;;;;;;5046470;28;20091;-61
2023/03/16 04:24:42;;;;;;;11.85;5.18;;;4.50;99.90;;;;;;5051317;28;20094;-61
2023/03/16 04:27:07;;;;;;;11.73;5.47;;;4.50;99.90;;;;;;5036384;28;20045;-61
2023/03/16 04:29:33;;;;;;;10.52;5.40;;;4.50;99.90;;;;;;5044491;28;20036;-61
2023/03/16 04:31:59;;;;;;;10.00;5.72;;;4.50;99.90;;;;;;5050867;28;20059;-61
2023/03/16 04:34:24;;;;;;;10.05;5.68;;;4.50;99.90;;;;;;5044964;28;20037;-61
2023/03/16 04:36:51;;;;;;;8.45;5.03;;;4.40;99.90;;;;;;5049354;28;20543;-61
2023/03/16 04:39:18;;;;;;;11.10;5.68;;;4.40;99.90;;;;;;5050746;28;20047;-61
2023/03/16 04:41:43;;;;;;;12.23;5.45;;;4.40;99.90;;;;;;5051213;28;20449;-61
2023/03/16 04:44:09;;;;;;;9.63;5.13;;;4.40;99.90;;;;;;5044627;28;20052;-61
2023/03/16 04:46:35;;;;;;;8.95;5.60;;;4.40;99.90;;;;;;5048663;28;20032;-62
2023/03/16 04:49:03;;;;;;;10.35;5.60;;;4.40;99.90;;;;;;5054459;28;20059;-61
2023/03/16 04:51:29;;;;;;;8.63;5.22;;;4.40;99.90;;;;;;5045382;28;20024;-62
2023/03/16 04:53:54;;;;;;;11.55;5.82;;;4.40;99.90;;;;;;5051320;28;20462;-62
2023/03/16 04:56:20;;;;;;;9.57;5.20;;;4.40;99.90;;;;;;5035055;28;20516;-61
2023/03/16 04:58:48;;;;;;;9.80;5.88;;;4.40;99.90;;;;;;5036374;28;20060;-61
2023/03/16 05:01:14;;;;;;;11.07;5.80;;;4.40;99.90;;;;;;5046031;28;20048;-61
2023/03/16 05:03:40;;;;;;;9.23;5.20;;;4.40;99.90;;;;;;5044062;28;20056;-61
2023/03/16 05:06:05;;;;;;;10.38;5.82;;;4.40;99.90;;;;;;5050823;28;20140;-62
2023/03/16 05:08:31;;;;;;;11.27;5.47;;;4.40;99.90;;;;;;5036327;28;20124;-62
2023/03/16 05:10:57;;;;;;;10.93;5.60;;;4.50;99.90;;;;;;5051168;28;20021;-62
2023/03/16 05:13:23;;;;;;;8.93;5.20;;;4.50;99.90;;;;;;5054547;28;20037;-62
2023/03/16 05:15:52;;;;;;;10.52;5.10;;;4.40;99.90;;;;;;5046978;28;20029;-61
2023/03/16 05:18:18;;;;;;;7.35;4.85;;;4.40;99.90;;;;;;5043938;28;20036;-61
2023/03/16 05:20:44;;;;;;;7.63;4.88;;;4.40;99.90;;;;;;5054362;28;20047;-61
2023/03/16 05:23:10;;;;;;;9.07;5.00;;;4.40;99.90;;;;;;5048097;28;20041;-61
2023/03/16 05:25:36;;;;;;;10.77;5.30;;;4.40;99.90;;;;;;5046677;28;20033;-61
2023/03/16 05:28:02;;;;;;;10.27;5.50;;;4.40;99.90;;;;;;5053923;28;20029;-61
2023/03/16 05:30:27;;;;;;;9.80;5.25;;;4.40;99.90;;;;;;5054011;28;20040;-62
2023/03/16 05:32:55;;;;;;;9.10;5.00;;;4.40;99.90;;;;;;5031301;22;20495;-61
2023/03/16 05:35:21;;;;;;;11.27;5.30;;;4.40;99.90;;;;;;5004187;28;20131;-61
2023/03/16 05:37:46;;;;;;;8.15;5.47;;;4.40;99.90;;;;;;5033937;28;20073;-61
2023/03/16 05:40:16;;;;;;;13.75;5.43;;;4.40;99.90;;;;;;5027347;28;20049;-61
2023/03/16 05:42:47;;;;;;;10.43;5.40;;;4.40;99.90;;;;;;5025698;28;20044;-62
2023/03/16 05:45:14;;;;;;;11.43;5.30;;;4.40;99.90;;;;;;5033881;28;20124;-61
2023/03/16 05:47:41;;;;;;;8.68;5.65;;;4.40;99.90;;;;;;5029031;28;20539;-61
2023/03/16 05:50:09;;;;;;;11.95;4.82;;;4.40;99.90;;;;;;5017989;28;20577;-61
2023/03/16 05:52:36;;;;;;;10.80;5.10;;;4.50;99.90;;;;;;5025027;28;20045;-61
2023/03/16 05:55:02;;;;;;;8.68;5.13;;;4.50;99.90;;;;;;5030999;28;20037;-61
2023/03/16 05:57:27;;;;;;;8.60;4.82;;;4.60;99.90;;;;;;5023846;28;20041;-61
2023/03/16 05:59:53;;;;;;;9.13;5.25;;;4.60;99.90;;;;;;5025896;28;20384;-61
2023/03/16 06:02:19;;;;;;;10.05;4.82;;;4.60;99.90;;;;;;5033031;28;20515;-61
2023/03/16 06:04:44;;;;;;;9.52;5.00;;;4.60;99.90;;;;;;5028923;28;20055;-61
2023/03/16 06:07:10;;;;;;;9.35;5.22;;;4.60;99.90;;;;;;5023264;28;20069;-61
2023/03/16 06:09:36;;;;;;;10.98;5.40;;;4.60;99.90;;;;;;5032491;28;20034;-61
2023/03/16 06:12:02;;;;;;;9.07;5.35;;;4.60;99.90;;;;;;5033285;28;20048;-61
2023/03/16 06:14:29;;;;;;;10.32;5.45;;;4.60;99.90;;;;;;5022068;28;20048;-61
2023/03/16 06:16:54;;;;;;;12.10;5.65;;;4.60;99.90;;;;;;5028786;28;20041;-61
2023/03/16 06:19:20;;;;;;;8.43;4.97;;;4.60;99.90;;;;;;5024363;28;20040;-61
2023/03/16 06:21:46;;;;;;;9.60;5.30;;;4.60;99.90;;;;;;5025080;28;20031;-61
2023/03/16 06:24:11;;;;;;;10.18;5.10;;;4.60;99.90;;;;;;5003661;28;20095;-61
2023/03/16 06:26:37;;;;;;;18.42;4.47;;;4.70;99.90;;;;;;5014394;28;20082;-62
2023/03/16 06:29:03;;;;;;;8.55;5.05;;;4.70;99.90;;;;;;5023064;28;20048;-61
2023/03/16 06:31:29;;;;;;;11.05;5.20;;;4.70;99.90;;;;;;5021006;28;20033;-62
2023/03/16 06:33:55;;;;;;;10.68;5.43;;;4.80;99.90;;;;;;5026918;28;20563;-61
2023/03/16 06:36:20;;;;;;;9.52;5.00;;;4.80;99.90;;;;;;5028753;28;20136;-61
2023/03/16 06:38:46;;;;;;;8.57;4.70;;;4.80;99.90;;;;;;5024394;28;20518;-61
2023/03/16 06:41:11;;;;;;;6.72;4.50;;;4.80;99.90;;;;;;5023907;28;20037;-62
2023/03/16 06:43:37;;;;;;;8.90;4.63;;;4.80;99.90;;;;;;5028668;28;20129;-61
2023/03/16 06:46:03;;;;;;;10.15;4.88;;;4.90;99.90;;;;;;5028654;28;20146;-61
2023/03/16 06:48:29;;;;;;;7.28;4.68;;;4.90;99.90;;;;;;5019847;28;20149;-62
2023/03/16 06:50:54;;;;;;;10.88;4.45;;;4.90;99.90;;;;;;5023365;28;20618;-62
2023/03/16 06:53:20;;;;;;;8.45;4.97;;;5.00;99.90;;;;;;5028273;28;20124;-62
2023/03/16 06:55:47;;;;;;;10.85;5.22;;;5.00;99.90;;;;;;5008010;28;20434;-62
2023/03/16 06:58:12;;;;;;;7.88;4.78;;;5.10;99.90;;;;;;5009346;28;20037;-62
2023/03/16 07:00:38;;;;;;;9.57;5.28;;;5.20;99.90;;;;;;5027964;28;20034;-62
2023/03/16 07:03:04;;;;;;;10.05;4.88;;;5.20;99.90;;;;;;5010766;28;20049;-63
2023/03/16 07:05:30;;;;;;;8.80;5.15;;;5.30;99.90;;;;;;5019774;28;20036;-61
2023/03/16 07:07:56;;;;;;;10.27;5.65;;;5.30;99.90;;;;;;5027719;28;20500;-62
2023/03/16 07:10:22;;;;;;;8.52;4.97;;;5.30;99.90;;;;;;5031309;28;20506;-62
2023/03/16 07:12:48;;;;;;;11.32;5.40;;;5.40;99.90;;;;;;5031861;28;20044;-62
2023/03/16 07:15:14;;;;;;;7.40;4.80;;;5.40;99.90;;;;;;5023074;28;20049;-62
2023/03/16 07:17:41;;;;;;;8.75;4.88;;;5.40;99.90;;;;;;5031692;28;20107;-62
2023/03/16 07:20:09;;;;;;;9.20;5.43;;;5.40;99.90;;;;;;5028906;28;20050;-63
2023/03/16 07:22:35;;;;;;;8.80;5.03;;;5.40;99.90;;;;;;5024968;28;20447;-63
2023/03/16 07:25:01;;;;;;;8.75;5.00;;;5.50;99.90;;;;;;5027704;28;20033;-63
2023/03/16 07:27:28;;;;;;;9.80;5.13;;;5.50;99.90;;;;;;5029038;28;20045;-62
2023/03/16 07:29:54;;;;;;;11.10;5.40;;;5.50;99.90;;;;;;5031750;28;20033;-63
2023/03/16 07:32:20;;;;;;;9.02;5.10;;;5.50;99.90;;;;;;5031847;28;20033;-62
2023/03/16 07:34:46;;;;;;;7.85;4.60;;;5.60;99.90;;;;;;5024761;28;20042;-63
2023/03/16 07:37:12;;;;;;;6.72;4.25;;;5.60;99.90;;;;;;5014535;28;20398;-63
2023/03/16 07:39:37;;;;;;;8.30;4.80;;;5.60;99.90;;;;;;5010466;28;20061;-62
2023/03/16 07:42:03;;;;;;;10.93;5.25;;;5.60;99.90;;;;;;5028005;28;20034;-62
2023/03/16 07:44:30;;;;;;;10.20;5.30;;;5.70;99.90;;;;;;5031362;28;20060;-62
2023/03/16 07:46:56;;;;;;;10.48;4.93;;;5.70;99.90;;;;;;5028623;28;20037;-62
2023/03/16 07:49:21;;;;;;;8.93;5.03;;;5.80;99.90;;;;;;5028750;28;20036;-62
2023/03/16 07:51:47;;;;;;;9.40;5.30;;;5.80;99.90;;;;;;5031635;28;20472;-62
2023/03/16 07:54:13;;;;;;;9.65;5.30;;;5.90;99.90;;;;;;5027528;28;20133;-62
2023/03/16 07:56:39;;;;;;;10.35;4.50;;;6.00;99.90;;;;;;5023131;28;20048;-61
2023/03/16 07:59:04;;;;;;;9.05;5.13;;;6.00;99.90;;;;;;5029918;28;20044;-62
2023/03/16 08:01:30;;;;;;;8.10;4.75;;;6.10;99.90;;;;;;5013223;28;20037;-62
2023/03/16 08:03:56;;;;;;;8.88;4.90;;;6.10;99.90;;;;;;5008654;28;20033;-62
2023/03/16 08:06:24;;;;;;;7.60;4.90;;;6.20;99.90;;;;;;5028846;28;20557;-62
2023/03/16 08:08:50;;;;;;;11.50;4.95;;;6.20;99.90;;;;;;5012573;28;20044;-62
2023/03/16 08:11:22;;;;;;;9.57;5.47;;;6.20;99.90;;;;;;5023925;28;20045;-62
2023/03/16 08:13:52;;;;;;;8.20;5.35;;;6.30;99.90;;;;;;5012493;28;20475;-62
2023/03/16 08:16:21;;;;;;;11.32;5.50;;;6.30;99.90;;;;;;5030432;28;20049;-62
2023/03/16 08:18:49;;;;;;;10.73;5.15;;;6.20;99.90;;;;;;5029532;28;20037;-62
2023/03/16 08:21:15;;;;;;;8.65;5.40;;;6.30;99.90;;;;;;5021589;28;20085;-62
2023/03/16 08:23:47;;;;;;;10.43;5.28;;;6.20;99.90;;;;;;5029836;28;20116;-62
2023/03/16 08:26:16;;;;;;;9.60;5.13;;;6.20;99.90;;;;;;5030560;28;20045;-63
2023/03/16 08:28:42;;;;;;;8.40;5.25;;;6.20;99.90;;;;;;5019418;28;20041;-62
2023/03/16 08:31:07;;;;;;;7.88;4.85;;;6.20;99.90;;;;;;5008199;28;20412;-62
2023/03/16 08:33:34;;;;;;;10.20;5.07;;;6.10;99.90;;;;;;5029855;28;20033;-63
2023/03/16 08:36:00;;;;;;;10.05;5.45;;;6.20;99.90;;;;;;5029849;28;20539;-62
2023/03/16 08:38:26;;;;;;;10.77;5.63;;;6.10;99.90;;;;;;5029764;28;20072;-62
2023/03/16 08:40:52;;;;;;;11.23;5.82;;;6.10;99.90;;;;;;5005307;28;20041;-62
2023/03/16 08:43:18;;;;;;;9.60;5.60;;;6.10;99.90;;;;;;5019233;28;20033;-62
2023/03/16 08:45:47;;;;;;;8.10;5.15;;;6.10;99.90;;;;;;5017137;28;20183;-62
2023/03/16 08:48:13;;;;;;;10.45;5.05;;;6.10;99.90;;;;;;5029176;28;20476;-62
2023/03/16 08:50:42;;;;;;;11.07;6.10;;;6.10;99.90;;;;;;5029901;28;20033;-63
2023/03/16 08:53:08;;;;;;;11.48;5.50;;;6.10;99.90;;;;;;5021614;28;20044;-62
2023/03/16 08:55:34;;;;;;;10.25;5.32;;;6.20;99.90;;;;;;5027739;28;20387;-62
2023/03/16 08:58:00;;;;;;;11.45;5.53;;;6.30;99.90;;;;;;5029733;28;20141;-62
2023/03/16 09:00:27;;;;;;;9.88;5.65;;;6.30;99.90;;;;;;5024759;28;20122;-63
2023/03/16 09:02:54;;;;;;;10.40;6.32;;;6.30;99.90;;;;;;5022569;28;20080;-63
2023/03/16 09:05:20;;;;;;;12.85;6.55;;;6.40;99.90;;;;;;5029341;28;20067;-62
2023/03/16 09:07:46;;;;;;;10.25;6.35;;;6.40;99.90;;;;;;5029214;28;20499;-63
2023/03/16 09:10:14;;;;;;;10.07;6.15;;;6.40;99.90;;;;;;5019834;28;20046;-63
2023/03/16 09:12:41;;;;;;;10.65;5.78;;;6.40;99.90;;;;;;5028479;28;20400;-63
2023/03/16 09:15:09;;;;;;;12.85;6.80;;;6.40;99.90;;;;;;5029413;28;20116;-63
2023/03/16 09:17:35;;;;;;;11.70;5.97;;;6.40;99.90;;;;;;5024895;28;20042;-63
2023/03/16 09:20:01;;;;;;;11.02;6.32;;;6.50;99.90;;;;;;5026365;28;20041;-63
2023/03/16 09:22:27;;;;;;;14.95;6.03;;;6.50;99.90;;;;;;5029439;28;20490;-63
2023/03/16 09:24:53;;;;;;;9.48;5.82;;;6.60;99.90;;;;;;5029545;28;20041;-63
2023/03/16 09:27:19;;;;;;;13.73;7.25;;;6.60;99.90;;;;;;5022996;28;20071;-63
2023/03/16 09:29:45;;;;;;;12.10;7.13;;;6.60;99.90;;;;;;5013103;28;20061;-63
2023/03/16 09:32:11;;;;;;;14.30;9.13;;;6.60;99.90;;;;;;5031036;28;20034;-63
2023/03/16 09:34:38;;;;;;;13.38;6.65;;;6.60;99.90;;;;;;5009016;28;20060;-64
2023/03/16 09:37:04;;;;;;;41.17;27.75;;;6.70;99.90;;;;;;4995994;28;20626;-63
2023/03/16 09:39:30;;;;;;;18.35;11.27;;;6.70;99.90;;;;;;5032978;28;20099;-63
2023/03/16 09:42:20;;;;;;;14.07;8.23;;;6.80;99.90;;;;;;5013110;28;20117;-64
2023/03/16 09:45:22;;;;;;;12.00;7.75;;;6.80;99.90;;;;;;5025314;28;20052;-63
2023/03/16 09:47:50;;;;;;;9.45;5.75;;;6.80;99.90;;;;;;5029151;28;20064;-63
2023/03/16 09:50:24;;;;;;;10.13;5.72;;;6.90;99.90;;;;;;5027237;28;20041;-63
2023/03/16 09:53:23;;;;;;;9.88;5.75;;;7.00;99.90;;;;;;5023344;28;20459;-63
2023/03/16 09:55:54;;;;;;;10.48;6.05;;;7.00;99.90;;;;;;5028580;28;20037;-63
2023/03/16 09:58:21;;;;;;;9.35;5.70;;;7.10;99.90;;;;;;5015766;28;20044;-63
2023/03/16 10:00:49;;;;;;;11.75;6.07;;;7.10;99.90;;;;;;5028583;28;20034;-63
2023/03/16 10:03:16;;;;;;;10.05;5.70;;;7.10;99.90;;;;;;5025353;28;20061;-63
2023/03/16 10:05:42;;;;;;;10.98;5.50;;;7.20;99.90;;;;;;5033033;28;20069;-63
2023/03/16 10:08:31;;;;;;;13.05;6.28;;;7.20;99.90;;;;;;5021584;28;20039;-63
2023/03/16 10:11:08;;;;;;;10.88;6.15;;;7.20;99.90;;;;;;5026397;28;20044;-63
2023/03/16 10:13:42;;;;;;;11.48;5.55;;;7.20;99.90;;;;;;5033477;28;20037;-63
2023/03/16 10:16:16;;;;;;;14.27;6.90;;;7.20;99.90;;;;;;5027304;28;20037;-63
2023/03/16 10:18:49;;;;;;;11.32;7.35;;;7.20;99.90;;;;;;5028051;28;20041;-63
2023/03/16 10:21:18;;;;;;;19.25;11.13;;;7.20;99.90;;;;;;5033363;28;20468;-63
2023/03/16 10:23:48;;;;;;;17.35;10.48;;;7.20;99.90;;;;;;5025470;28;20135;-63
2023/03/16 10:26:41;;;;;;;15.38;8.82;;;7.20;99.90;;;;;;5027608;28;20042;-63
2023/03/16 10:29:11;;;;;;;11.43;6.80;;;7.30;99.90;;;;;;5032261;28;20033;-63
2023/03/16 10:31:40;;;;;;;10.55;6.22;;;7.40;99.90;;;;;;5030409;28;20041;-63
2023/03/16 10:34:07;;;;;;;12.45;6.53;;;7.40;99.90;;;;;;5026602;28;20036;-63
2023/03/16 10:36:40;;;;;;;12.18;6.50;;;7.40;99.90;;;;;;5032760;28;20044;-63
2023/03/16 10:39:09;;;;;;;11.02;6.40;;;7.40;99.90;;;;;;5032889;28;20036;-63
2023/03/16 10:41:42;;;;;;;11.75;5.70;;;7.50;99.90;;;;;;5016507;28;20443;-63
2023/03/16 10:44:12;;;;;;;12.02;6.45;;;7.50;99.90;;;;;;5025092;28;20100;-63
2023/03/16 10:47:02;;;;;;;11.80;6.30;;;7.50;99.90;;;;;;5032682;28;20038;-63
2023/03/16 10:49:38;;;;;;;9.23;5.65;;;7.50;99.90;;;;;;5020781;28;20049;-62
2023/03/16 10:52:36;;;;;;;9.65;5.88;;;7.50;99.90;;;;;;5029665;28;20154;-63
2023/03/16 10:55:19;;;;;;;11.00;5.55;;;7.60;99.90;;;;;;5033028;28;20049;-63
2023/03/16 10:57:50;;;;;;;11.35;5.38;;;7.60;99.90;;;;;;5025445;28;20121;-63
2023/03/16 11:00:21;;;;;;;10.27;5.53;;;7.60;99.90;;;;;;5022478;28;20061;-62
2023/03/16 11:02:53;;;;;;;9.52;5.13;;;7.60;99.90;;;;;;5031368;28;20491;-63
2023/03/16 11:05:19;;;;;;;12.00;5.45;;;7.70;99.90;;;;;;5032142;28;20034;-63
2023/03/16 11:08:03;;;;;;;9.93;5.80;;;7.70;99.90;;;;;;5007135;28;20523;-63
2023/03/16 11:11:01;;;;;;;10.82;5.22;;;7.70;99.90;;;;;;5030307;28;20029;-64
2023/03/16 11:13:37;;;;;;;11.02;5.18;;;7.80;99.90;;;;;;5019882;28;20172;-64
2023/03/16 11:16:29;;;;;;;9.95;5.20;;;7.80;99.90;;;;;;5022950;28;20042;-64
2023/03/16 11:19:17;;;;;;;8.15;5.05;;;7.80;99.90;;;;;;5019275;28;20045;-65
2023/03/16 11:21:56;;;;;;;10.27;5.50;;;7.90;99.90;;;;;;5023404;28;20037;-64
2023/03/16 11:24:52;;;;;;;9.02;5.07;;;8.00;99.90;;;;;;5016597;28;20099;-64
2023/03/16 11:27:26;;;;;;;9.40;4.50;;;8.00;99.90;;;;;;5020511;28;20128;-63
2023/03/16 11:30:21;;;;;;;7.78;5.00;;;8.00;99.90;;;;;;5032013;28;20041;-62
2023/03/16 11:32:49;;;;;;;9.70;5.20;;;8.10;99.90;;;;;;5021534;28;20036;-62
2023/03/16 11:35:47;;;;;;;8.05;4.00;;;8.20;99.90;;;;;;5031321;28;20102;-62
2023/03/16 11:38:26;;;;;;;8.48;4.90;;;8.30;99.90;;;;;;5031443;28;20038;-62
2023/03/16 11:41:10;;;;;;;6.90;3.85;;;8.30;99.90;;;;;;5014448;28;20042;-63
2023/03/16 11:44:06;;;;;;;9.32;4.57;;;8.50;99.90;;;;;;5025224;28;20064;-63
2023/03/16 11:46:41;;;;;;;7.97;4.55;;;8.50;99.90;;;;;;5012395;28;20060;-63
2023/03/16 11:49:15;;;;;;;8.02;4.55;;;8.60;99.90;;;;;;5013675;28;20037;-62
2023/03/16 11:52:11;;;;;;;7.53;4.57;;;8.60;99.90;;;;;;5027530;28;20037;-63
2023/03/16 11:54:51;;;;;;;11.65;4.88;;;8.60;99.90;;;;;;5011317;28;20100;-63
2023/03/16 11:57:41;;;;;;;8.03;4.97;;;8.70;99.90;;;;;;5011874;28;20044;-62
2023/03/16 12:00:39;;;;;;;10.40;5.32;;;8.80;99.90;;;;;;5003590;28;20042;-62
2023/03/16 12:03:24;;;;;;;9.20;4.95;;;9.00;99.90;;;;;;5029075;28;20033;-62
2023/03/16 12:06:19;;;;;;;8.98;4.50;;;9.20;99.90;;;;;;5015288;28;20057;-63
2023/03/16 12:09:15;;;;;;;9.30;4.68;;;9.40;99.90;;;;;;5030807;28;20095;-63
2023/03/16 12:11:45;;;;;;;8.77;4.72;;;9.50;99.90;;;;;;5012119;28;20045;-64
2023/03/16 12:14:18;;;;;;;9.15;5.10;;;9.60;99.90;;;;;;5011103;28;20199;-63
2023/03/16 12:16:57;;;;;;;8.82;5.10;;;9.80;99.90;;;;;;5026407;28;20108;-63
2023/03/16 12:19:31;;;;;;;10.63;6.30;;;9.90;99.90;;;;;;5022554;28;20033;-62
2023/03/16 12:22:32;;;;;;;8.57;5.20;;;10.10;99.90;;;;;;5022630;28;20030;-62
2023/03/16 12:24:57;;;;;;;8.00;5.07;;;10.10;99.90;;;;;;5018994;28;20041;-62
2023/03/16 12:27:32;;;;;;;10.55;4.88;;;10.20;99.90;;;;;;5031278;28;20049;-62
2023/03/16 12:30:34;;;;;;;8.65;5.20;;;10.10;99.90;;;;;;5025183;28;20046;-62
2023/03/16 12:33:22;;;;;;;10.32;5.07;;;10.20;99.90;;;;;;5011831;28;20172;-63
2023/03/16 12:35:55;;;;;;;8.13;4.93;;;10.20;99.90;;;;;;5030875;28;20034;-62
2023/03/16 12:38:38;;;;;;;7.22;4.65;;;10.30;99.90;;;;;;5017393;28;20108;-63
2023/03/16 12:41:15;;;;;;;7.10;4.07;;;10.30;99.90;;;;;;5024116;28;20042;-62
2023/03/16 12:43:45;;;;;;;6.95;4.45;;;10.20;99.90;;;;;;5024408;28;20052;-63
2023/03/16 12:46:23;;;;;;;8.38;4.60;;;10.20;99.90;;;;;;5014543;28;20053;-62
2023/03/16 12:48:55;;;;;;;6.72;4.20;;;10.20;99.90;;;;;;5019996;28;20059;-64
2023/03/16 12:51:31;;;;;;;;;;;10.20;99.90;;;;;;5031542;28;20070;-62
2023/03/16 12:53:58;;;;;;;7.85;4.57;;;10.10;99.90;;;;;;5031232;28;19916;-63
2023/03/16 12:56:33;;;;;;;7.57;4.43;;;10.10;99.90;;;;;;5017137;28;20042;-63
2023/03/16 12:59:02;;;;;;;7.45;3.97;;;10.00;99.90;;;;;;5027103;28;20038;-63
2023/03/16 13:01:36;;;;;;;8.48;4.53;;;10.10;99.90;;;;;;5031360;28;20091;-62
2023/03/16 13:04:14;;;;;;;7.10;4.50;;;10.10;99.90;;;;;;5021738;28;20038;-63